sensor_id;sensor_type;location;lat;lon;timestamp;P1;durP1;ratioP1;P2;durP2;ratioP2
20884;SDS011;10602;48.000;9.654;2023-07-31T00:00:47;3.17;;;2.50;;
20884;SDS011;10602;48.000;9.654;2023-07-31T00:03:15;3.90;;;2.50;;
20884;SDS011;10602;48.000;9.654;2023-07-31T00:05:42;4.13;;;2.40;;
20884;SDS011;10602;48.000;9.654;2023-07-31T00:08:10;2.90;;;2.40;;
20884;SDS011;10602;48.000;9.654;2023-07-31T00:10:39;5.03;;;3.07;;
20884;SDS011;10602;48.000;9.654;2023-07-31T00:13:06;5.17;;;2.80;;
20884;SDS011;10602;48.000;9.654;2023-07-31T00:15:34;5.00;;;2.63;;
20884;SDS011;10602;48.000;9.654;2023-07-31T00:18:01;6.33;;;2.60;;
20884;SDS011;10602;48.000;9.654;2023-07-31T00:20:29;4.70;;;2.70;;
20884;SDS011;10602;48.000;9.654;2023-07-31T00:22:56;3.33;;;2.60;;
20884;SDS011;10602;48.000;9.654;2023-07-31T00:25:24;3.27;;;2.53;;
20884;SDS011;10602;48.000;9.654;2023-07-31T00:27:51;4.40;;;2.70;;
20884;SDS011;10602;48.000;9.654;2023-07-31T00:30:19;3.63;;;2.70;;
20884;SDS011;10602;48.000;9.654;2023-07-31T00:32:48;3.00;;;2.67;;
20884;SDS011;10602;48.000;9.654;2023-07-31T00:35:15;5.73;;;2.87;;
20884;SDS011;10602;48.000;9.654;2023-07-31T00:37:43;3.97;;;2.73;;
20884;SDS011;10602;48.000;9.654;2023-07-31T00:40:10;5.23;;;2.50;;
20884;SDS011;10602;48.000;9.654;2023-07-31T00:42:41;2.90;;;2.60;;
20884;SDS011;10602;48.000;9.654;2023-07-31T00:45:10;3.20;;;2.53;;
20884;SDS011;10602;48.000;9.654;2023-07-31T00:47:37;4.67;;;2.43;;
20884;SDS011;10602;48.000;9.654;2023-07-31T00:50:06;3.33;;;2.57;;
20884;SDS011;10602;48.000;9.654;2023-07-31T00:52:35;4.03;;;2.50;;
20884;SDS011;10602;48.000;9.654;2023-07-31T00:55:03;3.27;;;2.77;;
20884;SDS011;10602;48.000;9.654;2023-07-31T00:57:31;4.87;;;2.37;;
20884;SDS011;10602;48.000;9.654;2023-07-31T00:59:59;3.20;;;2.30;;
20884;SDS011;10602;48.000;9.654;2023-07-31T01:02:27;4.77;;;2.60;;
20884;SDS011;10602;48.000;9.654;2023-07-31T01:04:55;3.23;;;2.87;;
20884;SDS011;10602;48.000;9.654;2023-07-31T01:07:27;4.40;;;3.10;;
20884;SDS011;10602;48.000;9.654;2023-07-31T01:12:35;5.97;;;2.90;;
20884;SDS011;10602;48.000;9.654;2023-07-31T01:15:05;4.87;;;2.67;;
20884;SDS011;10602;48.000;9.654;2023-07-31T01:17:35;4.40;;;2.60;;
20884;SDS011;10602;48.000;9.654;2023-07-31T01:20:04;4.77;;;2.57;;
20884;SDS011;10602;48.000;9.654;2023-07-31T01:28:14;3.43;;;2.90;;
20884;SDS011;10602;48.000;9.654;2023-07-31T01:30:44;4.20;;;3.40;;
20884;SDS011;10602;48.000;9.654;2023-07-31T01:33:20;3.27;;;2.67;;
20884;SDS011;10602;48.000;9.654;2023-07-31T01:35:44;3.00;;;2.63;;
20884;SDS011;10602;48.000;9.654;2023-07-31T01:38:12;3.00;;;2.70;;
20884;SDS011;10602;48.000;9.654;2023-07-31T01:40:41;4.70;;;2.30;;
20884;SDS011;10602;48.000;9.654;2023-07-31T01:43:09;5.03;;;2.80;;
20884;SDS011;10602;48.000;9.654;2023-07-31T01:45:36;4.03;;;2.70;;
20884;SDS011;10602;48.000;9.654;2023-07-31T01:48:04;4.70;;;2.67;;
20884;SDS011;10602;48.000;9.654;2023-07-31T01:50:31;5.23;;;2.80;;
20884;SDS011;10602;48.000;9.654;2023-07-31T01:52:59;2.90;;;2.60;;
20884;SDS011;10602;48.000;9.654;2023-07-31T01:55:26;3.50;;;2.90;;
20884;SDS011;10602;48.000;9.654;2023-07-31T01:57:54;3.10;;;2.43;;
20884;SDS011;10602;48.000;9.654;2023-07-31T02:00:21;2.90;;;2.43;;
20884;SDS011;10602;48.000;9.654;2023-07-31T02:02:49;3.87;;;2.70;;
20884;SDS011;10602;48.000;9.654;2023-07-31T02:05:16;4.20;;;2.40;;
20884;SDS011;10602;48.000;9.654;2023-07-31T02:07:44;2.93;;;2.47;;
20884;SDS011;10602;48.000;9.654;2023-07-31T02:10:11;3.63;;;2.67;;
20884;SDS011;10602;48.000;9.654;2023-07-31T02:12:39;4.20;;;3.07;;
20884;SDS011;10602;48.000;9.654;2023-07-31T02:15:06;4.43;;;2.87;;
20884;SDS011;10602;48.000;9.654;2023-07-31T02:17:34;3.20;;;2.77;;
20884;SDS011;10602;48.000;9.654;2023-07-31T02:20:03;7.30;;;3.20;;
20884;SDS011;10602;48.000;9.654;2023-07-31T02:22:31;3.87;;;2.93;;
20884;SDS011;10602;48.000;9.654;2023-07-31T02:24:58;3.20;;;2.80;;
20884;SDS011;10602;48.000;9.654;2023-07-31T02:27:26;6.57;;;2.87;;
20884;SDS011;10602;48.000;9.654;2023-07-31T02:29:53;4.63;;;3.13;;
20884;SDS011;10602;48.000;9.654;2023-07-31T02:32:21;4.40;;;2.83;;
20884;SDS011;10602;48.000;9.654;2023-07-31T02:34:48;4.43;;;3.10;;
20884;SDS011;10602;48.000;9.654;2023-07-31T02:37:16;4.50;;;2.90;;
20884;SDS011;10602;48.000;9.654;2023-07-31T02:39:46;6.07;;;2.97;;
20884;SDS011;10602;48.000;9.654;2023-07-31T02:42:14;4.87;;;3.03;;
20884;SDS011;10602;48.000;9.654;2023-07-31T02:44:42;5.97;;;3.40;;
20884;SDS011;10602;48.000;9.654;2023-07-31T02:47:09;6.07;;;3.00;;
20884;SDS011;10602;48.000;9.654;2023-07-31T02:49:37;3.80;;;3.00;;
20884;SDS011;10602;48.000;9.654;2023-07-31T02:52:04;4.47;;;3.10;;
20884;SDS011;10602;48.000;9.654;2023-07-31T02:54:32;5.10;;;3.13;;
20884;SDS011;10602;48.000;9.654;2023-07-31T02:56:59;3.53;;;2.93;;
20884;SDS011;10602;48.000;9.654;2023-07-31T02:59:27;2.90;;;2.53;;
20884;SDS011;10602;48.000;9.654;2023-07-31T03:01:55;3.30;;;2.93;;
20884;SDS011;10602;48.000;9.654;2023-07-31T03:04:22;4.13;;;3.00;;
20884;SDS011;10602;48.000;9.654;2023-07-31T03:06:50;3.27;;;2.67;;
20884;SDS011;10602;48.000;9.654;2023-07-31T03:09:17;4.57;;;2.67;;
20884;SDS011;10602;48.000;9.654;2023-07-31T03:11:45;5.27;;;2.97;;
20884;SDS011;10602;48.000;9.654;2023-07-31T03:14:12;3.00;;;2.70;;
20884;SDS011;10602;48.000;9.654;2023-07-31T03:16:40;3.13;;;2.80;;
20884;SDS011;10602;48.000;9.654;2023-07-31T03:19:07;3.53;;;2.90;;
20884;SDS011;10602;48.000;9.654;2023-07-31T03:21:35;3.37;;;2.40;;
20884;SDS011;10602;48.000;9.654;2023-07-31T03:24:02;3.20;;;2.87;;
20884;SDS011;10602;48.000;9.654;2023-07-31T03:26:33;3.90;;;2.80;;
20884;SDS011;10602;48.000;9.654;2023-07-31T03:29:02;3.17;;;2.87;;
20884;SDS011;10602;48.000;9.654;2023-07-31T03:31:29;6.07;;;3.07;;
20884;SDS011;10602;48.000;9.654;2023-07-31T03:33:57;4.30;;;2.60;;
20884;SDS011;10602;48.000;9.654;2023-07-31T03:36:24;3.47;;;2.50;;
20884;SDS011;10602;48.000;9.654;2023-07-31T03:38:52;3.63;;;2.60;;
20884;SDS011;10602;48.000;9.654;2023-07-31T03:41:19;3.03;;;2.73;;
20884;SDS011;10602;48.000;9.654;2023-07-31T03:43:49;4.00;;;3.17;;
20884;SDS011;10602;48.000;9.654;2023-07-31T03:46:22;4.63;;;2.80;;
20884;SDS011;10602;48.000;9.654;2023-07-31T03:48:50;4.43;;;2.97;;
20884;SDS011;10602;48.000;9.654;2023-07-31T03:51:18;4.17;;;3.30;;
20884;SDS011;10602;48.000;9.654;2023-07-31T03:53:45;3.73;;;2.80;;
20884;SDS011;10602;48.000;9.654;2023-07-31T03:56:13;4.67;;;3.00;;
20884;SDS011;10602;48.000;9.654;2023-07-31T03:58:40;3.70;;;3.00;;
20884;SDS011;10602;48.000;9.654;2023-07-31T04:01:08;6.13;;;3.43;;
20884;SDS011;10602;48.000;9.654;2023-07-31T04:03:35;4.23;;;3.43;;
20884;SDS011;10602;48.000;9.654;2023-07-31T04:06:03;5.87;;;3.17;;
20884;SDS011;10602;48.000;9.654;2023-07-31T04:08:32;4.60;;;3.37;;
20884;SDS011;10602;48.000;9.654;2023-07-31T04:10:59;5.47;;;3.37;;
20884;SDS011;10602;48.000;9.654;2023-07-31T04:13:28;5.47;;;3.37;;
20884;SDS011;10602;48.000;9.654;2023-07-31T04:15:56;6.10;;;3.43;;
20884;SDS011;10602;48.000;9.654;2023-07-31T04:18:24;3.73;;;3.30;;
20884;SDS011;10602;48.000;9.654;2023-07-31T04:20:52;6.37;;;3.70;;
20884;SDS011;10602;48.000;9.654;2023-07-31T04:23:20;5.77;;;3.60;;
20884;SDS011;10602;48.000;9.654;2023-07-31T04:25:47;4.47;;;2.90;;
20884;SDS011;10602;48.000;9.654;2023-07-31T04:28:15;3.70;;;3.10;;
20884;SDS011;10602;48.000;9.654;2023-07-31T04:30:42;5.93;;;2.77;;
20884;SDS011;10602;48.000;9.654;2023-07-31T04:33:10;3.23;;;2.93;;
20884;SDS011;10602;48.000;9.654;2023-07-31T04:35:37;4.23;;;3.10;;
20884;SDS011;10602;48.000;9.654;2023-07-31T04:38:05;3.80;;;3.30;;
20884;SDS011;10602;48.000;9.654;2023-07-31T04:40:32;4.50;;;3.27;;
20884;SDS011;10602;48.000;9.654;2023-07-31T04:43:00;4.17;;;2.93;;
20884;SDS011;10602;48.000;9.654;2023-07-31T04:45:27;5.17;;;2.97;;
20884;SDS011;10602;48.000;9.654;2023-07-31T04:47:55;5.17;;;3.70;;
20884;SDS011;10602;48.000;9.654;2023-07-31T04:50:22;4.60;;;3.50;;
20884;SDS011;10602;48.000;9.654;2023-07-31T04:52:50;4.63;;;3.33;;
20884;SDS011;10602;48.000;9.654;2023-07-31T04:55:17;4.23;;;3.30;;
20884;SDS011;10602;48.000;9.654;2023-07-31T04:57:45;4.13;;;3.20;;
20884;SDS011;10602;48.000;9.654;2023-07-31T05:00:12;6.43;;;3.30;;
20884;SDS011;10602;48.000;9.654;2023-07-31T05:02:40;5.30;;;3.63;;
20884;SDS011;10602;48.000;9.654;2023-07-31T05:05:07;3.60;;;3.07;;
20884;SDS011;10602;48.000;9.654;2023-07-31T05:07:35;3.63;;;3.00;;
20884;SDS011;10602;48.000;9.654;2023-07-31T05:10:03;4.27;;;2.97;;
20884;SDS011;10602;48.000;9.654;2023-07-31T05:12:30;4.73;;;3.07;;
20884;SDS011;10602;48.000;9.654;2023-07-31T05:14:58;4.20;;;2.90;;
20884;SDS011;10602;48.000;9.654;2023-07-31T05:17:25;4.73;;;2.97;;
20884;SDS011;10602;48.000;9.654;2023-07-31T05:19:53;4.27;;;3.13;;
20884;SDS011;10602;48.000;9.654;2023-07-31T05:22:20;4.93;;;2.90;;
20884;SDS011;10602;48.000;9.654;2023-07-31T05:24:48;6.13;;;3.30;;
20884;SDS011;10602;48.000;9.654;2023-07-31T05:27:15;5.73;;;3.57;;
20884;SDS011;10602;48.000;9.654;2023-07-31T05:29:44;5.43;;;3.10;;
20884;SDS011;10602;48.000;9.654;2023-07-31T05:32:11;3.13;;;2.73;;
20884;SDS011;10602;48.000;9.654;2023-07-31T05:34:39;5.80;;;3.37;;
20884;SDS011;10602;48.000;9.654;2023-07-31T05:37:06;4.87;;;2.90;;
20884;SDS011;10602;48.000;9.654;2023-07-31T05:39:34;5.57;;;2.80;;
20884;SDS011;10602;48.000;9.654;2023-07-31T05:42:01;3.83;;;3.03;;
20884;SDS011;10602;48.000;9.654;2023-07-31T05:44:29;5.90;;;2.50;;
20884;SDS011;10602;48.000;9.654;2023-07-31T05:46:57;4.70;;;2.90;;
20884;SDS011;10602;48.000;9.654;2023-07-31T05:49:24;5.53;;;3.00;;
20884;SDS011;10602;48.000;9.654;2023-07-31T05:51:52;6.67;;;3.00;;
20884;SDS011;10602;48.000;9.654;2023-07-31T05:54:19;3.67;;;2.80;;
20884;SDS011;10602;48.000;9.654;2023-07-31T05:56:47;4.83;;;2.70;;
20884;SDS011;10602;48.000;9.654;2023-07-31T05:59:15;5.10;;;2.80;;
20884;SDS011;10602;48.000;9.654;2023-07-31T06:01:43;4.97;;;2.80;;
20884;SDS011;10602;48.000;9.654;2023-07-31T06:04:11;6.03;;;3.03;;
20884;SDS011;10602;48.000;9.654;2023-07-31T06:06:38;4.33;;;3.00;;
20884;SDS011;10602;48.000;9.654;2023-07-31T06:09:06;4.43;;;2.80;;
20884;SDS011;10602;48.000;9.654;2023-07-31T06:11:33;2.90;;;2.60;;
20884;SDS011;10602;48.000;9.654;2023-07-31T06:14:01;5.47;;;2.60;;
20884;SDS011;10602;48.000;9.654;2023-07-31T06:16:28;3.20;;;2.70;;
20884;SDS011;10602;48.000;9.654;2023-07-31T06:18:56;3.77;;;2.73;;
20884;SDS011;10602;48.000;9.654;2023-07-31T06:21:23;6.67;;;2.90;;
20884;SDS011;10602;48.000;9.654;2023-07-31T06:23:51;4.60;;;3.20;;
20884;SDS011;10602;48.000;9.654;2023-07-31T06:26:19;5.33;;;3.30;;
20884;SDS011;10602;48.000;9.654;2023-07-31T06:28:46;5.83;;;3.10;;
20884;SDS011;10602;48.000;9.654;2023-07-31T06:31:14;4.60;;;2.87;;
20884;SDS011;10602;48.000;9.654;2023-07-31T06:33:41;5.70;;;2.60;;
20884;SDS011;10602;48.000;9.654;2023-07-31T06:36:09;4.83;;;3.07;;
20884;SDS011;10602;48.000;9.654;2023-07-31T06:38:37;4.07;;;2.50;;
20884;SDS011;10602;48.000;9.654;2023-07-31T06:41:04;4.20;;;2.67;;
20884;SDS011;10602;48.000;9.654;2023-07-31T06:43:32;7.10;;;2.50;;
20884;SDS011;10602;48.000;9.654;2023-07-31T06:46:04;6.47;;;2.60;;
20884;SDS011;10602;48.000;9.654;2023-07-31T06:48:33;4.47;;;2.17;;
20884;SDS011;10602;48.000;9.654;2023-07-31T06:51:02;4.90;;;2.23;;
20884;SDS011;10602;48.000;9.654;2023-07-31T06:53:30;5.00;;;2.50;;
20884;SDS011;10602;48.000;9.654;2023-07-31T06:55:57;4.17;;;2.50;;
20884;SDS011;10602;48.000;9.654;2023-07-31T06:58:25;3.23;;;2.70;;
20884;SDS011;10602;48.000;9.654;2023-07-31T07:00:52;5.10;;;2.70;;
20884;SDS011;10602;48.000;9.654;2023-07-31T07:03:20;3.60;;;2.23;;
20884;SDS011;10602;48.000;9.654;2023-07-31T07:05:47;3.13;;;2.33;;
20884;SDS011;10602;48.000;9.654;2023-07-31T07:08:15;4.17;;;2.70;;
20884;SDS011;10602;48.000;9.654;2023-07-31T07:10:43;4.20;;;2.60;;
20884;SDS011;10602;48.000;9.654;2023-07-31T07:13:11;2.77;;;2.07;;
20884;SDS011;10602;48.000;9.654;2023-07-31T07:15:39;6.87;;;2.60;;
20884;SDS011;10602;48.000;9.654;2023-07-31T07:18:06;3.83;;;2.30;;
20884;SDS011;10602;48.000;9.654;2023-07-31T07:20:35;2.97;;;2.53;;
20884;SDS011;10602;48.000;9.654;2023-07-31T07:23:03;5.40;;;2.80;;
20884;SDS011;10602;48.000;9.654;2023-07-31T07:25:31;4.70;;;2.60;;
20884;SDS011;10602;48.000;9.654;2023-07-31T07:27:58;5.40;;;2.20;;
20884;SDS011;10602;48.000;9.654;2023-07-31T07:30:26;3.47;;;2.40;;
20884;SDS011;10602;48.000;9.654;2023-07-31T07:32:53;3.33;;;2.43;;
20884;SDS011;10602;48.000;9.654;2023-07-31T07:35:21;2.63;;;2.10;;
20884;SDS011;10602;48.000;9.654;2023-07-31T07:37:48;3.10;;;2.20;;
20884;SDS011;10602;48.000;9.654;2023-07-31T07:40:16;4.63;;;2.53;;
20884;SDS011;10602;48.000;9.654;2023-07-31T07:42:43;4.93;;;2.63;;
20884;SDS011;10602;48.000;9.654;2023-07-31T07:45:11;4.40;;;2.20;;
20884;SDS011;10602;48.000;9.654;2023-07-31T07:47:40;4.27;;;2.20;;
20884;SDS011;10602;48.000;9.654;2023-07-31T07:50:08;3.23;;;2.20;;
20884;SDS011;10602;48.000;9.654;2023-07-31T07:52:36;2.97;;;2.00;;
20884;SDS011;10602;48.000;9.654;2023-07-31T07:55:03;4.27;;;2.27;;
20884;SDS011;10602;48.000;9.654;2023-07-31T07:57:31;5.10;;;1.97;;
20884;SDS011;10602;48.000;9.654;2023-07-31T07:59:58;4.20;;;2.20;;
20884;SDS011;10602;48.000;9.654;2023-07-31T08:02:26;3.57;;;2.20;;
20884;SDS011;10602;48.000;9.654;2023-07-31T08:04:54;4.27;;;1.90;;
20884;SDS011;10602;48.000;9.654;2023-07-31T08:07:22;3.80;;;2.07;;
20884;SDS011;10602;48.000;9.654;2023-07-31T08:09:50;3.40;;;2.50;;
20884;SDS011;10602;48.000;9.654;2023-07-31T08:12:17;2.90;;;1.90;;
20884;SDS011;10602;48.000;9.654;2023-07-31T08:14:44;4.10;;;1.80;;
20884;SDS011;10602;48.000;9.654;2023-07-31T08:17:12;2.50;;;1.60;;
20884;SDS011;10602;48.000;9.654;2023-07-31T08:19:39;4.37;;;2.30;;
20884;SDS011;10602;48.000;9.654;2023-07-31T08:22:07;4.03;;;2.13;;
20884;SDS011;10602;48.000;9.654;2023-07-31T08:24:34;3.57;;;2.00;;
20884;SDS011;10602;48.000;9.654;2023-07-31T08:27:02;3.17;;;2.10;;
20884;SDS011;10602;48.000;9.654;2023-07-31T08:29:30;3.27;;;2.00;;
20884;SDS011;10602;48.000;9.654;2023-07-31T08:31:57;4.13;;;2.10;;
20884;SDS011;10602;48.000;9.654;2023-07-31T08:34:25;3.70;;;2.07;;
20884;SDS011;10602;48.000;9.654;2023-07-31T08:36:54;2.77;;;1.90;;
20884;SDS011;10602;48.000;9.654;2023-07-31T08:39:21;4.60;;;2.47;;
20884;SDS011;10602;48.000;9.654;2023-07-31T08:41:49;4.53;;;2.43;;
20884;SDS011;10602;48.000;9.654;2023-07-31T08:44:16;3.23;;;1.97;;
20884;SDS011;10602;48.000;9.654;2023-07-31T08:46:46;4.43;;;2.10;;
20884;SDS011;10602;48.000;9.654;2023-07-31T08:49:14;4.33;;;2.20;;
20884;SDS011;10602;48.000;9.654;2023-07-31T08:51:43;3.60;;;1.90;;
20884;SDS011;10602;48.000;9.654;2023-07-31T08:54:12;3.50;;;2.10;;
20884;SDS011;10602;48.000;9.654;2023-07-31T08:56:39;4.93;;;2.10;;
20884;SDS011;10602;48.000;9.654;2023-07-31T08:59:07;4.63;;;2.30;;
20884;SDS011;10602;48.000;9.654;2023-07-31T09:01:37;3.13;;;2.20;;
20884;SDS011;10602;48.000;9.654;2023-07-31T09:04:07;4.80;;;1.80;;
20884;SDS011;10602;48.000;9.654;2023-07-31T09:06:35;3.20;;;2.10;;
20884;SDS011;10602;48.000;9.654;2023-07-31T09:09:04;4.30;;;1.90;;
20884;SDS011;10602;48.000;9.654;2023-07-31T09:11:32;3.97;;;2.17;;
20884;SDS011;10602;48.000;9.654;2023-07-31T09:14:00;3.20;;;1.80;;
20884;SDS011;10602;48.000;9.654;2023-07-31T09:16:30;5.03;;;2.00;;
20884;SDS011;10602;48.000;9.654;2023-07-31T09:18:59;4.23;;;2.10;;
20884;SDS011;10602;48.000;9.654;2023-07-31T09:21:28;3.03;;;2.10;;
20884;SDS011;10602;48.000;9.654;2023-07-31T09:23:56;4.13;;;1.93;;
20884;SDS011;10602;48.000;9.654;2023-07-31T09:26:30;3.57;;;2.00;;
20884;SDS011;10602;48.000;9.654;2023-07-31T09:29:04;3.97;;;1.93;;
20884;SDS011;10602;48.000;9.654;2023-07-31T09:31:42;4.57;;;2.10;;
20884;SDS011;10602;48.000;9.654;2023-07-31T09:34:10;3.20;;;2.13;;
20884;SDS011;10602;48.000;9.654;2023-07-31T09:36:40;3.97;;;2.27;;
20884;SDS011;10602;48.000;9.654;2023-07-31T09:39:12;3.07;;;1.93;;
20884;SDS011;10602;48.000;9.654;2023-07-31T09:41:46;4.97;;;2.27;;
20884;SDS011;10602;48.000;9.654;2023-07-31T09:44:14;3.33;;;2.03;;
20884;SDS011;10602;48.000;9.654;2023-07-31T09:46:42;2.90;;;2.13;;
20884;SDS011;10602;48.000;9.654;2023-07-31T09:49:10;4.13;;;2.40;;
20884;SDS011;10602;48.000;9.654;2023-07-31T09:51:39;3.43;;;2.17;;
20884;SDS011;10602;48.000;9.654;2023-07-31T09:54:11;4.50;;;2.10;;
20884;SDS011;10602;48.000;9.654;2023-07-31T09:56:48;2.37;;;1.80;;
20884;SDS011;10602;48.000;9.654;2023-07-31T09:59:13;3.77;;;2.27;;
20884;SDS011;10602;48.000;9.654;2023-07-31T10:01:42;4.20;;;2.00;;
20884;SDS011;10602;48.000;9.654;2023-07-31T10:04:12;3.40;;;2.23;;
20884;SDS011;10602;48.000;9.654;2023-07-31T10:06:40;3.63;;;2.20;;
20884;SDS011;10602;48.000;9.654;2023-07-31T10:09:11;3.73;;;2.37;;
20884;SDS011;10602;48.000;9.654;2023-07-31T10:11:50;3.10;;;2.10;;
20884;SDS011;10602;48.000;9.654;2023-07-31T10:14:18;2.93;;;2.27;;
20884;SDS011;10602;48.000;9.654;2023-07-31T10:16:47;3.13;;;2.10;;
20884;SDS011;10602;48.000;9.654;2023-07-31T10:19:14;5.37;;;2.23;;
20884;SDS011;10602;48.000;9.654;2023-07-31T10:21:42;3.07;;;2.27;;
20884;SDS011;10602;48.000;9.654;2023-07-31T10:24:11;2.37;;;2.00;;
20884;SDS011;10602;48.000;9.654;2023-07-31T10:26:40;3.63;;;2.20;;
20884;SDS011;10602;48.000;9.654;2023-07-31T10:29:09;3.60;;;2.27;;
20884;SDS011;10602;48.000;9.654;2023-07-31T10:31:37;3.80;;;1.80;;
20884;SDS011;10602;48.000;9.654;2023-07-31T10:34:05;3.80;;;2.27;;
20884;SDS011;10602;48.000;9.654;2023-07-31T10:36:33;3.60;;;2.00;;
20884;SDS011;10602;48.000;9.654;2023-07-31T10:39:00;4.53;;;2.23;;
20884;SDS011;10602;48.000;9.654;2023-07-31T10:41:30;3.50;;;2.20;;
20884;SDS011;10602;48.000;9.654;2023-07-31T10:43:59;4.97;;;2.30;;
20884;SDS011;10602;48.000;9.654;2023-07-31T10:46:27;4.00;;;1.80;;
20884;SDS011;10602;48.000;9.654;2023-07-31T10:49:01;4.47;;;2.07;;
20884;SDS011;10602;48.000;9.654;2023-07-31T10:51:32;2.60;;;2.00;;
20884;SDS011;10602;48.000;9.654;2023-07-31T10:54:10;2.83;;;1.77;;
20884;SDS011;10602;48.000;9.654;2023-07-31T10:56:47;3.50;;;2.27;;
20884;SDS011;10602;48.000;9.654;2023-07-31T10:59:19;5.43;;;2.20;;
20884;SDS011;10602;48.000;9.654;2023-07-31T11:01:51;3.10;;;1.90;;
20884;SDS011;10602;48.000;9.654;2023-07-31T11:04:28;2.90;;;2.00;;
20884;SDS011;10602;48.000;9.654;2023-07-31T11:06:59;3.17;;;2.00;;
20884;SDS011;10602;48.000;9.654;2023-07-31T11:09:29;2.73;;;1.80;;
20884;SDS011;10602;48.000;9.654;2023-07-31T11:12:00;4.23;;;2.47;;
20884;SDS011;10602;48.000;9.654;2023-07-31T11:14:28;3.00;;;2.27;;
20884;SDS011;10602;48.000;9.654;2023-07-31T11:16:55;3.67;;;2.20;;
20884;SDS011;10602;48.000;9.654;2023-07-31T11:19:23;3.93;;;2.40;;
20884;SDS011;10602;48.000;9.654;2023-07-31T12:48:52;3.70;;;2.10;;
20884;SDS011;10602;48.000;9.654;2023-07-31T12:51:19;3.90;;;2.23;;
20884;SDS011;10602;48.000;9.654;2023-07-31T12:53:47;3.07;;;2.10;;
20884;SDS011;10602;48.000;9.654;2023-07-31T12:56:14;3.00;;;2.20;;
20884;SDS011;10602;48.000;9.654;2023-07-31T12:58:43;3.60;;;2.53;;
20884;SDS011;10602;48.000;9.654;2023-07-31T13:01:10;3.17;;;2.10;;
20884;SDS011;10602;48.000;9.654;2023-07-31T13:03:38;3.00;;;2.17;;
20884;SDS011;10602;48.000;9.654;2023-07-31T13:06:05;3.20;;;2.13;;
20884;SDS011;10602;48.000;9.654;2023-07-31T13:08:33;2.90;;;2.07;;
20884;SDS011;10602;48.000;9.654;2023-07-31T13:11:01;2.90;;;2.10;;
20884;SDS011;10602;48.000;9.654;2023-07-31T13:13:28;4.73;;;2.10;;
20884;SDS011;10602;48.000;9.654;2023-07-31T13:15:56;4.40;;;2.27;;
20884;SDS011;10602;48.000;9.654;2023-07-31T13:18:27;4.00;;;2.30;;
20884;SDS011;10602;48.000;9.654;2023-07-31T13:20:56;3.67;;;2.13;;
20884;SDS011;10602;48.000;9.654;2023-07-31T13:23:23;3.13;;;2.40;;
20884;SDS011;10602;48.000;9.654;2023-07-31T13:25:51;2.40;;;2.03;;
20884;SDS011;10602;48.000;9.654;2023-07-31T13:28:18;4.20;;;2.30;;
20884;SDS011;10602;48.000;9.654;2023-07-31T13:30:46;3.37;;;2.30;;
20884;SDS011;10602;48.000;9.654;2023-07-31T13:33:13;2.73;;;2.27;;
20884;SDS011;10602;48.000;9.654;2023-07-31T13:35:41;3.03;;;2.40;;
20884;SDS011;10602;48.000;9.654;2023-07-31T13:38:08;3.30;;;2.20;;
20884;SDS011;10602;48.000;9.654;2023-07-31T13:40:36;3.20;;;2.40;;
20884;SDS011;10602;48.000;9.654;2023-07-31T13:43:03;4.43;;;2.20;;
20884;SDS011;10602;48.000;9.654;2023-07-31T13:45:31;2.80;;;2.40;;
20884;SDS011;10602;48.000;9.654;2023-07-31T13:47:58;3.33;;;2.30;;
20884;SDS011;10602;48.000;9.654;2023-07-31T13:50:26;3.87;;;2.30;;
20884;SDS011;10602;48.000;9.654;2023-07-31T13:52:53;3.50;;;2.20;;
20884;SDS011;10602;48.000;9.654;2023-07-31T13:55:23;3.77;;;2.37;;
20884;SDS011;10602;48.000;9.654;2023-07-31T13:57:50;4.23;;;2.67;;
20884;SDS011;10602;48.000;9.654;2023-07-31T14:00:19;2.67;;;2.27;;
20884;SDS011;10602;48.000;9.654;2023-07-31T14:02:46;4.27;;;2.10;;
20884;SDS011;10602;48.000;9.654;2023-07-31T14:05:14;4.77;;;2.20;;
20884;SDS011;10602;48.000;9.654;2023-07-31T14:07:41;3.33;;;2.20;;
20884;SDS011;10602;48.000;9.654;2023-07-31T14:10:09;3.77;;;2.57;;
20884;SDS011;10602;48.000;9.654;2023-07-31T14:12:37;3.67;;;2.50;;
20884;SDS011;10602;48.000;9.654;2023-07-31T14:15:05;4.10;;;2.40;;
20884;SDS011;10602;48.000;9.654;2023-07-31T14:17:33;4.37;;;2.57;;
20884;SDS011;10602;48.000;9.654;2023-07-31T14:20:01;3.83;;;2.57;;
20884;SDS011;10602;48.000;9.654;2023-07-31T14:22:29;5.20;;;2.57;;
20884;SDS011;10602;48.000;9.654;2023-07-31T14:24:59;3.90;;;2.57;;
20884;SDS011;10602;48.000;9.654;2023-07-31T14:27:28;3.63;;;2.40;;
20884;SDS011;10602;48.000;9.654;2023-07-31T14:29:56;3.13;;;2.40;;
20884;SDS011;10602;48.000;9.654;2023-07-31T14:32:25;3.93;;;2.50;;
20884;SDS011;10602;48.000;9.654;2023-07-31T14:34:53;3.03;;;2.40;;
20884;SDS011;10602;48.000;9.654;2023-07-31T14:37:20;4.37;;;2.97;;
20884;SDS011;10602;48.000;9.654;2023-07-31T14:39:48;3.77;;;2.47;;
20884;SDS011;10602;48.000;9.654;2023-07-31T14:42:16;4.87;;;2.70;;
20884;SDS011;10602;48.000;9.654;2023-07-31T14:44:44;5.10;;;2.53;;
20884;SDS011;10602;48.000;9.654;2023-07-31T14:47:12;4.60;;;2.43;;
20884;SDS011;10602;48.000;9.654;2023-07-31T14:49:40;4.50;;;2.67;;
20884;SDS011;10602;48.000;9.654;2023-07-31T14:52:08;3.70;;;2.50;;
20884;SDS011;10602;48.000;9.654;2023-07-31T14:57:23;2.67;;;2.10;;
20884;SDS011;10602;48.000;9.654;2023-07-31T14:59:51;5.40;;;2.53;;
20884;SDS011;10602;48.000;9.654;2023-07-31T15:02:19;5.43;;;2.40;;
20884;SDS011;10602;48.000;9.654;2023-07-31T15:04:46;3.90;;;2.67;;
20884;SDS011;10602;48.000;9.654;2023-07-31T15:07:16;6.47;;;2.50;;
20884;SDS011;10602;48.000;9.654;2023-07-31T15:09:44;4.27;;;2.50;;
20884;SDS011;10602;48.000;9.654;2023-07-31T15:12:11;3.10;;;2.67;;
20884;SDS011;10602;48.000;9.654;2023-07-31T15:14:39;4.33;;;2.87;;
20884;SDS011;10602;48.000;9.654;2023-07-31T15:17:07;3.97;;;2.53;;
20884;SDS011;10602;48.000;9.654;2023-07-31T15:19:34;3.20;;;2.60;;
20884;SDS011;10602;48.000;9.654;2023-07-31T15:22:03;3.50;;;2.50;;
20884;SDS011;10602;48.000;9.654;2023-07-31T15:24:31;3.60;;;2.83;;
20884;SDS011;10602;48.000;9.654;2023-07-31T15:26:58;2.97;;;2.50;;
20884;SDS011;10602;48.000;9.654;2023-07-31T15:29:28;3.60;;;2.67;;
20884;SDS011;10602;48.000;9.654;2023-07-31T15:31:56;3.33;;;2.70;;
20884;SDS011;10602;48.000;9.654;2023-07-31T15:34:23;4.10;;;2.83;;
20884;SDS011;10602;48.000;9.654;2023-07-31T15:36:51;3.00;;;2.60;;
20884;SDS011;10602;48.000;9.654;2023-07-31T15:39:18;3.60;;;2.80;;
20884;SDS011;10602;48.000;9.654;2023-07-31T15:41:46;5.97;;;2.90;;
20884;SDS011;10602;48.000;9.654;2023-07-31T15:44:13;4.33;;;3.23;;
20884;SDS011;10602;48.000;9.654;2023-07-31T15:46:41;4.80;;;3.03;;
20884;SDS011;10602;48.000;9.654;2023-07-31T15:49:10;3.00;;;2.50;;
20884;SDS011;10602;48.000;9.654;2023-07-31T15:51:39;5.13;;;2.87;;
20884;SDS011;10602;48.000;9.654;2023-07-31T15:54:06;3.73;;;2.63;;
20884;SDS011;10602;48.000;9.654;2023-07-31T15:56:34;3.87;;;3.00;;
20884;SDS011;10602;48.000;9.654;2023-07-31T15:59:02;3.87;;;2.77;;
20884;SDS011;10602;48.000;9.654;2023-07-31T16:01:30;4.93;;;3.03;;
20884;SDS011;10602;48.000;9.654;2023-07-31T16:03:58;3.80;;;2.77;;
20884;SDS011;10602;48.000;9.654;2023-07-31T16:06:26;3.60;;;2.93;;
20884;SDS011;10602;48.000;9.654;2023-07-31T16:08:54;5.00;;;2.80;;
20884;SDS011;10602;48.000;9.654;2023-07-31T16:11:22;4.57;;;2.73;;
20884;SDS011;10602;48.000;9.654;2023-07-31T16:13:49;6.10;;;3.00;;
20884;SDS011;10602;48.000;9.654;2023-07-31T16:16:17;3.87;;;2.80;;
20884;SDS011;10602;48.000;9.654;2023-07-31T16:18:46;4.57;;;2.87;;
20884;SDS011;10602;48.000;9.654;2023-07-31T16:21:13;5.17;;;3.20;;
20884;SDS011;10602;48.000;9.654;2023-07-31T16:23:41;5.80;;;3.20;;
20884;SDS011;10602;48.000;9.654;2023-07-31T16:26:08;4.57;;;3.30;;
20884;SDS011;10602;48.000;9.654;2023-07-31T16:28:36;4.43;;;2.80;;
20884;SDS011;10602;48.000;9.654;2023-07-31T16:31:03;6.13;;;3.17;;